createdAt,value
2024-05-09T00:02:50.861Z,99.90
2024-05-09T00:06:17.821Z,99.90
2024-05-09T00:09:44.895Z,99.90
2024-05-09T00:13:13.604Z,99.90
2024-05-09T00:16:39.732Z,99.90
2024-05-09T00:20:14.397Z,99.90
2024-05-09T00:23:46.701Z,99.90
2024-05-09T00:27:13.484Z,99.90
2024-05-09T00:30:42.358Z,99.90
2024-05-09T00:34:08.982Z,99.90
2024-05-09T00:37:35.699Z,99.90
2024-05-09T00:41:01.820Z,99.90
2024-05-09T00:44:27.861Z,99.90
2024-05-09T00:47:56.819Z,99.90
2024-05-09T00:51:23.849Z,99.90
2024-05-09T00:54:49.780Z,99.90
2024-05-09T00:58:18.737Z,99.90
2024-05-09T01:01:46.021Z,99.90
2024-05-09T01:05:14.790Z,99.90
2024-05-09T01:08:43.115Z,99.90
2024-05-09T01:12:09.780Z,99.90
2024-05-09T01:15:44.239Z,99.90
2024-05-09T01:19:18.069Z,99.90
2024-05-09T01:22:48.093Z,99.90
2024-05-09T01:26:19.269Z,99.90
2024-05-09T01:29:45.017Z,99.90
2024-05-09T01:33:12.317Z,99.90
2024-05-09T01:36:44.044Z,99.90
2024-05-09T01:40:15.044Z,99.90
2024-05-09T01:43:48.635Z,99.90
2024-05-09T01:47:14.520Z,99.90
2024-05-09T01:50:42.825Z,99.90
2024-05-09T01:54:09.669Z,99.90
2024-05-09T01:57:35.855Z,99.90
2024-05-09T02:01:05.161Z,99.90
2024-05-09T02:04:31.911Z,99.90
2024-05-09T02:07:57.884Z,99.90
2024-05-09T02:11:23.902Z,99.90
2024-05-09T02:14:50.786Z,99.90
2024-05-09T02:18:19.523Z,99.90
2024-05-09T02:21:45.790Z,99.90
2024-05-09T02:25:11.508Z,99.90
2024-05-09T02:28:37.870Z,99.90
2024-05-09T02:32:03.912Z,99.90
2024-05-09T02:35:32.516Z,99.90
2024-05-09T02:38:58.850Z,99.90
2024-05-09T02:42:24.641Z,99.90
2024-05-09T02:45:48.265Z,99.90
2024-05-09T02:49:15.926Z,99.90
2024-05-09T02:52:44.322Z,99.90
2024-05-09T02:56:08.025Z,99.90
2024-05-09T02:59:33.935Z,99.90
2024-05-09T03:03:00.073Z,99.90
2024-05-09T03:06:24.282Z,99.90
2024-05-09T03:09:53.598Z,99.90
2024-05-09T03:13:19.871Z,99.90
2024-05-09T03:16:43.393Z,99.90
2024-05-09T03:20:20.015Z,99.90
2024-05-09T03:23:51.282Z,99.90
2024-05-09T03:27:24.758Z,99.90
2024-05-09T03:30:53.147Z,99.90
2024-05-09T03:34:18.988Z,99.90
2024-05-09T03:37:45.217Z,99.90
2024-05-09T03:41:11.225Z,99.90
2024-05-09T03:44:41.759Z,99.90
2024-05-09T03:48:08.837Z,99.90
2024-05-09T03:51:32.346Z,99.90
2024-05-09T03:54:59.003Z,99.90
2024-05-09T03:58:26.405Z,99.90
2024-05-09T04:01:54.981Z,99.90
2024-05-09T04:05:18.214Z,99.90
2024-05-09T04:08:44.014Z,99.90
2024-05-09T04:12:08.510Z,99.90
2024-05-09T04:15:35.068Z,99.90
2024-05-09T04:19:09.633Z,99.90
2024-05-09T04:22:36.040Z,99.90
2024-05-09T04:25:59.418Z,99.90
2024-05-09T04:29:26.052Z,99.90
2024-05-09T04:32:51.128Z,99.90
2024-05-09T04:36:21.938Z,99.90
2024-05-09T04:39:45.133Z,99.90
2024-05-09T04:43:18.990Z,99.90
2024-05-09T04:46:45.090Z,99.90
2024-05-09T04:50:14.570Z,99.90
2024-05-09T04:53:44.081Z,99.90
2024-05-09T04:57:09.803Z,99.90
2024-05-09T05:00:38.673Z,99.90
2024-05-09T05:04:06.241Z,99.90
2024-05-09T05:07:30.416Z,99.90
2024-05-09T05:10:59.736Z,99.90
2024-05-09T05:14:23.567Z,99.90
2024-05-09T05:17:50.276Z,99.90
2024-05-09T05:21:14.555Z,99.90
2024-05-09T05:24:41.047Z,99.90
2024-05-09T05:28:10.051Z,99.90
2024-05-09T05:31:36.107Z,99.90
2024-05-09T05:34:59.302Z,98.40
2024-05-09T05:38:28.069Z,96.30
2024-05-09T05:41:51.883Z,95.10
2024-05-09T05:45:20.246Z,93.90
2024-05-09T05:48:46.201Z,93.60
2024-05-09T05:52:12.374Z,93.10
2024-05-09T05:55:38.495Z,92.20
2024-05-09T05:59:04.290Z,92.80
2024-05-09T06:02:30.134Z,91.80
2024-05-09T06:05:55.926Z,90.80
2024-05-09T06:09:19.088Z,90.00
2024-05-09T06:12:44.895Z,88.30
2024-05-09T06:16:11.113Z,88.20
2024-05-09T06:19:37.064Z,87.80
2024-05-09T06:23:03.061Z,86.90
2024-05-09T06:26:27.248Z,85.80
2024-05-09T06:29:53.020Z,85.80
2024-05-09T06:33:19.045Z,86.10
2024-05-09T06:36:47.736Z,85.30
2024-05-09T06:40:17.478Z,84.20
2024-05-09T06:43:43.478Z,82.90
2024-05-09T06:47:07.783Z,82.10
2024-05-09T06:50:37.855Z,82.50
2024-05-09T06:54:10.726Z,82.80
2024-05-09T06:57:34.564Z,81.40
2024-05-09T07:01:04.149Z,80.80
2024-05-09T07:04:30.275Z,80.60
2024-05-09T07:07:56.242Z,79.30
2024-05-09T07:11:27.431Z,78.70
2024-05-09T07:14:53.308Z,77.60
2024-05-09T07:18:18.654Z,76.50
2024-05-09T07:21:45.446Z,76.10
2024-05-09T07:25:08.730Z,76.00
2024-05-09T07:28:41.253Z,76.70
2024-05-09T07:32:08.936Z,76.30
2024-05-09T07:35:37.715Z,75.30
2024-05-09T07:39:05.607Z,74.00
2024-05-09T07:42:31.432Z,73.50
2024-05-09T07:46:00.891Z,70.80
2024-05-09T07:51:32.189Z,71.20
2024-05-09T07:53:39.998Z,70.00
2024-05-09T07:57:07.723Z,70.70
2024-05-09T08:00:34.397Z,70.10
2024-05-09T08:04:02.958Z,69.70
2024-05-09T08:07:26.692Z,68.60
2024-05-09T08:10:53.835Z,67.90
2024-05-09T08:14:17.662Z,64.40
2024-05-09T08:17:44.375Z,62.30
2024-05-09T08:21:12.970Z,61.20
2024-05-09T08:24:36.760Z,61.30
2024-05-09T08:28:03.435Z,60.30
2024-05-09T08:31:29.395Z,60.00
2024-05-09T08:34:57.128Z,58.60
2024-05-09T08:38:24.568Z,58.60
2024-05-09T08:41:53.996Z,58.00
2024-05-09T08:45:18.553Z,55.50
2024-05-09T08:48:45.681Z,54.80
2024-05-09T08:52:12.594Z,54.50
2024-05-09T08:55:43.384Z,54.10
2024-05-09T08:59:13.582Z,53.80
2024-05-09T09:02:41.297Z,53.80
2024-05-09T09:06:07.262Z,53.70
2024-05-09T09:09:43.420Z,53.10
2024-05-09T09:13:13.223Z,52.90
2024-05-09T09:16:40.049Z,51.70
2024-05-09T09:20:09.028Z,52.60
2024-05-09T09:23:42.133Z,51.90
2024-05-09T09:27:09.039Z,53.10
2024-05-09T09:30:37.950Z,52.40
2024-05-09T09:34:10.446Z,51.20
2024-05-09T09:37:35.762Z,51.30
2024-05-09T09:41:04.581Z,50.50
2024-05-09T09:44:29.591Z,50.90
2024-05-09T09:48:00.054Z,52.30
2024-05-09T09:51:25.737Z,53.90
2024-05-09T09:54:52.989Z,54.10
2024-05-09T09:58:18.129Z,53.90
2024-05-09T10:01:47.110Z,52.60
2024-05-09T10:05:13.663Z,53.60
2024-05-09T10:08:41.618Z,54.00
2024-05-09T10:12:16.003Z,53.60
2024-05-09T10:15:48.116Z,52.90
2024-05-09T10:19:24.239Z,52.40
2024-05-09T10:22:53.153Z,52.80
2024-05-09T10:26:16.245Z,52.90
2024-05-09T10:29:45.058Z,52.70
2024-05-09T10:33:11.389Z,54.90
2024-05-09T10:36:45.487Z,57.60
2024-05-09T10:40:26.372Z,57.30
2024-05-09T10:43:54.903Z,56.80
2024-05-09T10:47:24.396Z,57.10
2024-05-09T10:50:50.578Z,58.30
2024-05-09T10:54:16.350Z,58.90
2024-05-09T10:57:46.161Z,59.90
2024-05-09T11:01:10.266Z,61.70
2024-05-09T11:04:37.372Z,61.70
2024-05-09T11:08:01.063Z,62.80
2024-05-09T11:11:28.199Z,63.10
2024-05-09T11:15:00.241Z,63.40
2024-05-09T11:18:26.482Z,65.10
2024-05-09T11:21:54.725Z,65.50
2024-05-09T11:25:20.764Z,66.10
2024-05-09T11:28:45.553Z,65.60
2024-05-09T11:32:17.755Z,67.10
2024-05-09T11:35:41.422Z,68.00
2024-05-09T11:39:07.622Z,67.50
2024-05-09T11:42:33.739Z,67.20
2024-05-09T11:45:57.688Z,68.10
2024-05-09T11:49:27.457Z,67.70
2024-05-09T11:52:53.573Z,67.70
2024-05-09T11:56:19.336Z,66.30
2024-05-09T11:59:45.328Z,66.20
2024-05-09T12:03:11.683Z,64.90
2024-05-09T12:06:45.457Z,66.20
2024-05-09T12:10:16.454Z,66.20
2024-05-09T12:13:45.527Z,67.10
2024-05-09T12:17:09.122Z,67.30
2024-05-09T12:20:39.121Z,66.60
2024-05-09T12:24:06.429Z,66.80
2024-05-09T12:27:32.267Z,67.40
2024-05-09T12:30:58.710Z,67.40
2024-05-09T12:34:27.119Z,68.10
2024-05-09T12:37:51.106Z,68.40
2024-05-09T12:41:20.377Z,67.90
2024-05-09T12:44:43.470Z,68.20
2024-05-09T12:48:12.186Z,68.50
2024-05-09T12:51:39.959Z,69.00
2024-05-09T12:55:07.113Z,68.90
2024-05-09T12:58:41.466Z,69.00
2024-05-09T13:02:05.438Z,69.60
2024-05-09T13:05:31.961Z,69.90
2024-05-09T13:08:55.383Z,69.70
2024-05-09T13:12:23.356Z,70.30
2024-05-09T13:15:55.445Z,69.40
2024-05-09T13:19:22.453Z,70.20
2024-05-09T13:22:49.028Z,69.60
2024-05-09T13:26:15.877Z,69.90
2024-05-09T13:29:44.249Z,70.00
2024-05-09T13:33:14.477Z,69.50
2024-05-09T13:36:40.660Z,69.50
2024-05-09T13:40:06.851Z,70.20
2024-05-09T13:43:33.780Z,70.50
2024-05-09T13:46:57.186Z,70.90
2024-05-09T13:50:33.683Z,70.20
2024-05-09T13:54:02.935Z,69.90
2024-05-09T13:57:29.142Z,71.20
2024-05-09T14:00:55.057Z,71.60
2024-05-09T14:04:21.147Z,70.90
2024-05-09T14:07:51.472Z,70.80
2024-05-09T14:11:17.887Z,70.20
2024-05-09T14:14:41.174Z,70.90
2024-05-09T14:18:12.377Z,71.60
2024-05-09T14:21:39.725Z,71.40
2024-05-09T14:25:07.349Z,71.00
2024-05-09T14:28:33.904Z,70.70
2024-05-09T14:31:59.842Z,71.60
2024-05-09T14:35:23.218Z,71.80
2024-05-09T14:38:49.878Z,71.20
2024-05-09T14:42:16.055Z,71.50
2024-05-09T14:45:44.520Z,71.30
2024-05-09T14:49:09.865Z,71.00
2024-05-09T14:52:37.932Z,70.10
2024-05-09T14:56:01.449Z,70.20
2024-05-09T14:59:30.555Z,70.60
2024-05-09T15:02:56.891Z,69.30
2024-05-09T15:06:25.057Z,68.60
2024-05-09T15:09:51.895Z,69.00
2024-05-09T15:13:17.918Z,70.10
2024-05-09T15:16:48.496Z,70.00
2024-05-09T15:20:20.249Z,69.80
2024-05-09T15:23:50.980Z,70.30
2024-05-09T15:27:14.169Z,70.00
2024-05-09T15:30:44.128Z,70.20
2024-05-09T15:34:15.567Z,70.80
2024-05-09T15:37:38.750Z,70.60
2024-05-09T15:41:04.878Z,70.60
2024-05-09T15:44:28.333Z,70.20
2024-05-09T15:47:55.012Z,70.60
2024-05-09T15:51:23.534Z,71.40
2024-05-09T15:54:50.006Z,71.20
2024-05-09T15:58:14.228Z,71.50
2024-05-09T16:01:41.016Z,71.40
2024-05-09T16:05:07.211Z,71.30
2024-05-09T16:08:36.647Z,70.80
2024-05-09T16:12:06.087Z,70.90
2024-05-09T16:15:32.098Z,71.30
2024-05-09T16:19:00.135Z,71.50
2024-05-09T16:22:25.417Z,71.80
2024-05-09T16:25:53.796Z,72.70
2024-05-09T16:29:19.542Z,73.40
2024-05-09T16:32:45.514Z,73.30
2024-05-09T16:36:11.529Z,73.60
2024-05-09T16:39:34.781Z,73.30
2024-05-09T16:43:03.280Z,73.10
2024-05-09T16:46:28.122Z,72.80
2024-05-09T16:49:53.906Z,73.00
2024-05-09T16:53:19.720Z,73.10
2024-05-09T16:56:42.875Z,72.90
2024-05-09T17:00:18.310Z,73.00
2024-05-09T17:03:50.305Z,73.40
2024-05-09T17:07:16.244Z,73.60
2024-05-09T17:10:39.544Z,74.20
2024-05-09T17:14:05.304Z,74.70
2024-05-09T17:17:33.781Z,75.00
2024-05-09T17:20:59.580Z,75.60
2024-05-09T17:24:22.812Z,76.70
2024-05-09T17:27:48.706Z,77.90
2024-05-09T17:31:14.524Z,78.80
2024-05-09T17:34:40.418Z,79.60
2024-05-09T17:38:07.477Z,80.60
2024-05-09T17:41:33.297Z,81.40
2024-05-09T17:44:59.046Z,82.50
2024-05-09T17:48:25.452Z,82.80
2024-05-09T17:51:54.917Z,83.30
2024-05-09T17:55:21.297Z,84.00
2024-05-09T17:58:46.385Z,84.90
2024-05-09T18:02:12.302Z,86.10
2024-05-09T18:05:38.726Z,86.80
2024-05-09T18:09:07.480Z,87.60
2024-05-09T18:12:33.257Z,88.10
2024-05-09T18:15:59.303Z,88.40
2024-05-09T18:19:22.923Z,89.00
2024-05-09T18:22:50.659Z,89.30
2024-05-09T18:26:19.069Z,89.70
2024-05-09T18:29:42.161Z,90.20
2024-05-09T18:33:12.874Z,90.60
2024-05-09T18:36:36.322Z,90.70
2024-05-09T18:40:02.207Z,90.60
2024-05-09T18:43:38.018Z,90.60
2024-05-09T18:47:09.423Z,90.90
2024-05-09T18:50:37.229Z,91.20
2024-05-09T18:54:05.501Z,91.40
2024-05-09T18:57:31.594Z,91.70
2024-05-09T19:00:59.956Z,92.10
2024-05-09T19:04:34.499Z,92.50
2024-05-09T19:08:08.819Z,92.90
2024-05-09T19:11:32.669Z,93.10
2024-05-09T19:14:59.416Z,93.40
2024-05-09T19:18:34.996Z,93.80
2024-05-09T19:22:06.264Z,93.90
2024-05-09T19:25:33.270Z,94.30
2024-05-09T19:29:01.783Z,94.60
2024-05-09T19:32:35.987Z,94.80
2024-05-09T19:36:09.922Z,95.20
2024-05-09T19:39:38.109Z,95.50
2024-05-09T19:43:12.549Z,95.90
2024-05-09T19:46:40.589Z,96.10
2024-05-09T19:50:16.070Z,96.60
2024-05-09T19:53:55.045Z,96.80
2024-05-09T19:57:19.403Z,97.50
2024-05-09T20:00:45.335Z,97.40
2024-05-09T20:04:11.517Z,97.70
2024-05-09T20:07:37.874Z,98.20
2024-05-09T20:11:15.920Z,98.50
2024-05-09T20:14:43.593Z,98.70
2024-05-09T20:18:10.525Z,99.00
2024-05-09T20:21:37.467Z,99.30
2024-05-09T20:25:11.741Z,99.60
2024-05-09T20:28:46.364Z,99.70
2024-05-09T20:32:14.532Z,99.90
2024-05-09T20:35:40.436Z,99.90
2024-05-09T20:39:06.360Z,99.90
2024-05-09T20:42:34.302Z,99.90
2024-05-09T20:46:02.933Z,99.90
2024-05-09T20:49:26.948Z,99.90
2024-05-09T20:52:53.319Z,99.90
2024-05-09T20:56:19.590Z,99.90
2024-05-09T20:59:44.290Z,99.90
2024-05-09T21:03:13.992Z,99.90
2024-05-09T21:06:42.377Z,99.90
2024-05-09T21:10:15.630Z,99.90
2024-05-09T21:13:48.382Z,99.90
2024-05-09T21:17:14.690Z,99.90
2024-05-09T21:20:51.279Z,99.90
2024-05-09T21:24:14.780Z,99.90
2024-05-09T21:27:42.672Z,99.90
2024-05-09T21:31:16.412Z,99.90
2024-05-09T21:34:42.422Z,99.90
2024-05-09T21:38:11.404Z,99.90
2024-05-09T21:41:38.706Z,99.90
2024-05-09T21:45:02.980Z,99.90
2024-05-09T21:48:30.445Z,99.90
2024-05-09T21:52:01.764Z,99.90
2024-05-09T21:55:32.685Z,99.90
2024-05-09T21:58:59.384Z,99.90
2024-05-09T22:02:22.945Z,99.90
2024-05-09T22:05:50.911Z,99.90
2024-05-09T22:09:16.647Z,99.90
2024-05-09T22:12:43.845Z,99.90
2024-05-09T22:16:12.057Z,99.90
2024-05-09T22:19:35.661Z,99.90
2024-05-09T22:23:01.450Z,99.90
2024-05-09T22:26:29.586Z,99.90
2024-05-09T22:29:58.347Z,99.90
2024-05-09T22:33:21.935Z,99.90
2024-05-09T22:36:50.789Z,99.90
2024-05-09T22:40:20.748Z,99.90
2024-05-09T22:43:55.467Z,99.90
2024-05-09T22:47:31.954Z,99.90
2024-05-09T22:50:57.822Z,99.90
2024-05-09T22:54:20.911Z,99.90
2024-05-09T22:57:47.532Z,99.90
2024-05-09T23:01:18.032Z,99.90
2024-05-09T23:04:49.720Z,99.90
2024-05-09T23:08:16.564Z,99.90
2024-05-09T23:11:47.967Z,99.90
2024-05-09T23:15:13.725Z,99.90
2024-05-09T23:18:37.124Z,99.90
2024-05-09T23:22:09.586Z,99.90
2024-05-09T23:25:36.708Z,99.90
2024-05-09T23:29:02.441Z,99.90
2024-05-09T23:32:25.936Z,99.90
2024-05-09T23:35:54.143Z,99.90
2024-05-09T23:39:20.903Z,99.90
2024-05-09T23:42:49.610Z,99.90
2024-05-09T23:46:15.651Z,99.90
2024-05-09T23:49:41.056Z,99.90
2024-05-09T23:53:10.017Z,99.90
2024-05-09T23:56:43.493Z,99.90
